Terminal Aerodrome Forecast
Issued by NWS

Home | Current Version | Previous Version | Graphics & Text | Print | Product List | Glossary On
Versions: 1 2 3 4 5 6 7 8 9 10 11 12 13
000
FTUS43 KGRB 272327
TAFATW
TAF
KATW 272327Z 2800/2824 18005KT P6SM BKN250
      TEMPO 2808/2812 5SM BR
     FM281200 19003KT P6SM SCT050 BKN100
     FM281500 21007KT P6SM SCT030 OVC080 PROB30 2815/2820 -RA OVC030
     FM282000 15007KT 6SM RA BKN022 OVC035=

USA.gov is the U.S. government's official web portal to all federal, state and local government web resources and services.